Time;durP1;ratioP1;P1;durP2;ratioP2;P2;SDS_P1;SDS_P2;PMS_P1;PMS_P2;Temp;Humidity;BMP_temperature;BMP_pressure;BME280_temperature;BME280_humidity;BME280_pressure;Samples;Min_cycle;Max_cycle;Signal;HPM_P1;HPM_P2
2022/11/25 00:01:47;;;;;;;6.32;5.53;;;;;;;;;;5117943;27;20411;-88
2022/11/25 00:04:13;;;;;;;7.63;5.13;;;;;;;;;;5116437;27;20410;-87
2022/11/25 00:06:39;;;;;;;6.25;5.35;;;;;;;;;;5115810;27;20857;-87
2022/11/25 00:09:10;;;;;;;6.47;5.00;;;;;;;;;;5131998;27;20389;-87
2022/11/25 00:11:37;;;;;;;8.32;5.25;;;;;;;;;;5120375;27;20431;-88
2022/11/25 00:14:04;;;;;;;7.70;5.28;;;;;;;;;;5120727;27;20398;-87
2022/11/25 00:16:30;;;;;;;5.20;4.70;;;;;;;;;;5135048;27;20382;-87
2022/11/25 00:18:57;;;;;;;5.90;5.30;;;;;;;;;;5134653;27;20370;-87
2022/11/25 00:21:24;;;;;;;7.82;6.25;;;;;;;;;;5134919;27;20390;-87
2022/11/25 00:23:54;;;;;;;6.15;5.53;;;;;;;;;;5134894;27;20418;-87
2022/11/25 00:26:20;;;;;;;10.52;8.85;;;;;;;;;;5137395;27;20769;-88
2022/11/25 00:28:47;;;;;;;8.80;5.60;;;;;;;;;;5134833;27;20423;-87
2022/11/25 00:31:32;;;;;;;6.47;4.97;;;;;;;;;;5134653;27;20367;-86
2022/11/25 00:33:58;;;;;;;6.50;5.05;;;;;;;;;;5131276;27;21017;-87
2022/11/25 00:36:29;;;;;;;5.50;4.80;;;;;;;;;;5132688;27;20438;-87
2022/11/25 00:38:57;;;;;;;5.60;4.55;;;;;;;;;;5135118;27;20411;-88
2022/11/25 00:46:55;;;;;;;6.68;4.80;;;;;;;;;;5134721;27;20465;-87
2022/11/25 00:49:21;;;;;;;5.90;5.28;;;;;;;;;;5134137;27;20449;-87
2022/11/25 00:51:47;;;;;;;5.22;4.72;;;;;;;;;;5134278;27;20855;-86
2022/11/25 00:54:13;;;;;;;5.78;4.85;;;;;;;;;;5134067;27;20401;-86
2022/11/25 00:56:40;;;;;;;7.30;5.28;;;;;;;;;;5134280;27;20386;-86
2022/11/25 00:59:06;;;;;;;7.18;4.60;;;;;;;;;;5134290;27;20367;-87
2022/11/25 01:01:32;;;;;;;5.90;4.65;;;;;;;;;;5134098;27;20367;-86
2022/11/25 01:03:58;;;;;;;6.00;4.70;;;;;;;;;;5133991;27;20382;-86
2022/11/25 01:06:24;;;;;;;7.15;4.68;;;;;;;;;;5134170;27;20889;-85
2022/11/25 01:08:50;;;;;;;6.70;4.45;;;;;;;;;;5124880;27;20371;-87
2022/11/25 01:11:18;;;;;;;6.13;5.20;;;;;;;;;;5115517;27;20409;-87
2022/11/25 01:13:44;;;;;;;5.75;4.80;;;;;;;;;;5133986;27;20414;-87
2022/11/25 01:16:11;;;;;;;5.65;4.65;;;;;;;;;;5134173;27;20370;-87
2022/11/25 01:18:37;;;;;;;8.45;4.70;;;;;;;;;;5115495;27;20485;-86
2022/11/25 01:21:08;;;;;;;4.78;4.30;;;;;;;;;;5133471;27;20420;-86
2022/11/25 01:23:34;;;;;;;5.80;4.85;;;;;;;;;;5133567;27;20430;-86
2022/11/25 01:26:07;;;;;;;5.20;4.47;;;;;;;;;;5136186;27;20371;-87
2022/11/25 01:28:34;;;;;;;5.03;4.53;;;;;;;;;;5144861;27;20415;-87
2022/11/25 01:31:00;;;;;;;6.50;4.97;;;;;;;;;;5115130;27;20820;-86
2022/11/25 01:33:26;;;;;;;5.72;4.25;;;;;;;;;;5133658;27;20457;-87
2022/11/25 01:35:52;;;;;;;5.45;4.45;;;;;;;;;;5117293;27;20733;-86
2022/11/25 01:38:18;;;;;;;6.00;4.38;;;;;;;;;;5146473;27;20366;-87
2022/11/25 01:40:44;;;;;;;6.15;4.63;;;;;;;;;;5148315;27;20402;-86
2022/11/25 01:43:14;;;;;;;5.00;4.20;;;;;;;;;;5133922;27;20445;-86
2022/11/25 01:45:40;;;;;;;6.65;4.50;;;;;;;;;;5153776;27;20426;-87
2022/11/25 01:48:18;;;;;;;6.05;4.80;;;;;;;;;;5142590;27;20773;-86
2022/11/25 01:50:44;;;;;;;5.55;4.93;;;;;;;;;;5136023;27;20441;-87
2022/11/25 01:53:11;;;;;;;6.18;5.57;;;;;;;;;;5116930;27;20387;-87
2022/11/25 01:55:38;;;;;;;5.22;4.70;;;;;;;;;;5133032;27;20408;-87
2022/11/25 01:58:06;;;;;;;7.80;5.28;;;;;;;;;;5134014;27;20374;-87
2022/11/25 02:00:33;;;;;;;6.03;4.75;;;;;;;;;;5133193;27;20379;-88
2022/11/25 02:02:59;;;;;;;6.55;5.07;;;;;;;;;;5133783;27;20381;-86
2022/11/25 02:05:48;;;;;;;5.90;5.32;;;;;;;;;;5130120;27;20457;-87
2022/11/25 02:08:15;;;;;;;7.63;5.47;;;;;;;;;;5077047;28;20420;-87
2022/11/25 02:10:42;;;;;;;6.07;5.43;;;;;;;;;;5118833;27;20384;-87
2022/11/25 02:13:09;;;;;;;6.25;5.65;;;;;;;;;;5114837;28;20794;-87
2022/11/25 02:15:35;;;;;;;6.90;5.85;;;;;;;;;;5114667;28;20424;-86
2022/11/25 02:18:01;;;;;;;6.43;5.60;;;;;;;;;;5133209;27;20975;-87
2022/11/25 02:20:27;;;;;;;6.10;5.50;;;;;;;;;;5133320;27;20855;-87
2022/11/25 02:22:59;;;;;;;5.90;5.30;;;;;;;;;;5121831;27;20373;-86
2022/11/25 02:25:25;;;;;;;5.70;4.70;;;;;;;;;;5129653;27;20391;-87
2022/11/25 02:27:57;;;;;;;7.05;4.70;;;;;;;;;;5111257;28;20374;-86
2022/11/25 02:30:23;;;;;;;5.00;4.50;;;;;;;;;;5109696;28;20861;-87
2022/11/25 02:32:49;;;;;;;4.90;4.20;;;;;;;;;;5114813;27;20414;-87
2022/11/25 02:35:24;;;;;;;5.97;4.47;;;;;;;;;;5133031;27;20759;-87
2022/11/25 02:37:50;;;;;;;5.00;4.43;;;;;;;;;;5135327;27;20408;-87
2022/11/25 02:40:16;;;;;;;5.10;4.60;;;;;;;;;;5132676;27;20381;-86
2022/11/25 02:42:43;;;;;;;5.03;4.45;;;;;;;;;;5132872;27;20449;-87
2022/11/25 02:45:11;;;;;;;5.82;5.18;;;;;;;;;;5132902;27;20374;-86
2022/11/25 02:47:37;;;;;;;6.22;5.10;;;;;;;;;;5114737;28;20453;-87
2022/11/25 02:50:04;;;;;;;6.45;5.00;;;;;;;;;;5132804;27;20412;-86
2022/11/25 02:52:30;;;;;;;5.95;5.00;;;;;;;;;;5132820;27;20473;-87
2022/11/25 02:54:55;;;;;;;5.22;4.72;;;;;;;;;;5132543;27;20535;-87
2022/11/25 02:57:21;;;;;;;5.83;4.50;;;;;;;;;;5132843;27;20378;-88
2022/11/25 02:59:47;;;;;;;5.18;4.57;;;;;;;;;;5132897;27;20743;-88
2022/11/25 03:02:14;;;;;;;5.70;4.45;;;;;;;;;;5118576;27;20418;-87
2022/11/25 03:04:40;;;;;;;6.13;4.72;;;;;;;;;;5118112;27;20400;-86
2022/11/25 03:07:06;;;;;;;6.40;4.90;;;;;;;;;;5133151;27;20386;-87
2022/11/25 03:09:32;;;;;;;7.15;4.88;;;;;;;;;;5126516;27;20394;-87
2022/11/25 03:14:43;;;;;;;5.25;4.72;;;;;;;;;;5135445;27;20409;-87
2022/11/25 03:17:08;;;;;;;5.60;5.10;;;;;;;;;;5135916;27;20367;-86
2022/11/25 03:19:34;;;;;;;5.50;5.00;;;;;;;;;;5118031;27;20508;-85
2022/11/25 03:22:00;;;;;;;8.07;5.43;;;;;;;;;;5136163;27;20382;-86
2022/11/25 03:24:26;;;;;;;6.63;5.20;;;;;;;;;;5135918;27;20379;-86
2022/11/25 03:26:52;;;;;;;6.43;4.85;;;;;;;;;;5117654;27;20383;-87
2022/11/25 03:29:18;;;;;;;5.97;5.33;;;;;;;;;;5135893;27;20422;-87
2022/11/25 03:31:45;;;;;;;5.72;5.13;;;;;;;;;;5135517;27;20383;-87
2022/11/25 03:34:11;;;;;;;5.38;4.88;;;;;;;;;;5135849;27;20407;-87
2022/11/25 03:36:37;;;;;;;7.40;5.57;;;;;;;;;;5135858;27;20363;-87
2022/11/25 03:39:03;;;;;;;6.65;5.32;;;;;;;;;;5135701;27;20363;-86
2022/11/25 03:41:29;;;;;;;7.23;5.67;;;;;;;;;;5135677;27;20473;-87
2022/11/25 03:43:55;;;;;;;33.22;24.70;;;;;;;;;;5135806;27;20374;-86
2022/11/25 03:46:21;;;;;;;13.13;11.97;;;;;;;;;;5135518;27;20386;-86
2022/11/25 03:48:47;;;;;;;12.25;11.18;;;;;;;;;;5135631;27;20918;-88
2022/11/25 03:51:13;;;;;;;7.97;7.22;;;;;;;;;;5135767;27;20378;-86
2022/11/25 03:53:39;;;;;;;9.70;8.80;;;;;;;;;;5117208;27;20878;-87
2022/11/25 03:56:05;;;;;;;7.38;6.53;;;;;;;;;;5116743;27;20559;-87
2022/11/25 03:58:31;;;;;;;6.20;5.60;;;;;;;;;;5132151;27;20423;-87
2022/11/25 04:01:01;;;;;;;5.82;5.30;;;;;;;;;;5135258;27;20453;-87
2022/11/25 04:03:27;;;;;;;7.57;5.50;;;;;;;;;;5135224;27;20410;-87
2022/11/25 04:05:53;;;;;;;5.43;4.90;;;;;;;;;;5135333;27;20389;-86
2022/11/25 04:08:19;;;;;;;5.70;5.00;;;;;;;;;;5126205;27;20388;-87
2022/11/25 04:10:45;;;;;;;6.50;4.93;;;;;;;;;;5134945;27;20385;-87
2022/11/25 04:13:11;;;;;;;6.07;5.30;;;;;;;;;;5135273;27;20870;-86
2022/11/25 04:15:37;;;;;;;5.30;4.80;;;;;;;;;;5116469;27;20573;-87
2022/11/25 04:18:03;;;;;;;5.30;4.72;;;;;;;;;;5134342;27;20378;-86
2022/11/25 04:20:29;;;;;;;4.90;4.50;;;;;;;;;;5135092;27;20359;-87
2022/11/25 04:22:55;;;;;;;4.90;4.50;;;;;;;;;;5131664;27;20409;-87
2022/11/25 04:25:21;;;;;;;5.13;4.50;;;;;;;;;;5134745;27;20378;-87
2022/11/25 04:27:47;;;;;;;5.15;4.40;;;;;;;;;;5134891;27;20787;-86
2022/11/25 04:30:13;;;;;;;4.82;4.32;;;;;;;;;;5137474;27;20371;-86
2022/11/25 04:32:39;;;;;;;5.55;4.90;;;;;;;;;;5134566;27;20379;-87
2022/11/25 04:35:05;;;;;;;7.68;5.18;;;;;;;;;;5133820;27;20398;-87
2022/11/25 04:37:31;;;;;;;5.70;5.10;;;;;;;;;;5134869;27;20378;-87
2022/11/25 04:39:57;;;;;;;5.15;4.65;;;;;;;;;;5129633;27;20400;-87
2022/11/25 04:42:38;;;;;;;5.20;4.70;;;;;;;;;;5116645;27;20753;-87
2022/11/25 04:45:06;;;;;;;5.67;4.70;;;;;;;;;;5124202;27;20427;-86
2022/11/25 04:47:32;;;;;;;5.00;4.57;;;;;;;;;;5134456;27;20461;-87
2022/11/25 04:49:58;;;;;;;6.47;4.40;;;;;;;;;;5115554;27;20523;-86
2022/11/25 04:52:24;;;;;;;5.85;4.57;;;;;;;;;;5133894;27;20436;-87
2022/11/25 04:54:50;;;;;;;6.65;5.13;;;;;;;;;;5135839;27;20392;-85
2022/11/25 04:57:16;;;;;;;5.00;4.50;;;;;;;;;;5146956;27;20500;-86
2022/11/25 04:59:43;;;;;;;5.32;4.18;;;;;;;;;;5134370;27;20375;-86
2022/11/25 05:02:13;;;;;;;7.03;4.40;;;;;;;;;;5134111;27;20366;-87
2022/11/25 05:04:39;;;;;;;4.93;4.40;;;;;;;;;;5133015;27;20409;-87
2022/11/25 05:07:05;;;;;;;7.10;4.78;;;;;;;;;;5140384;27;20390;-85
2022/11/25 05:09:31;;;;;;;5.05;4.50;;;;;;;;;;5135358;27;20411;-85
2022/11/25 05:11:57;;;;;;;5.10;4.40;;;;;;;;;;5115597;27;20396;-85
2022/11/25 05:14:24;;;;;;;5.30;4.80;;;;;;;;;;5128546;27;20413;-86
2022/11/25 05:16:50;;;;;;;5.32;4.70;;;;;;;;;;5136109;27;20735;-86
2022/11/25 05:19:16;;;;;;;5.68;4.80;;;;;;;;;;5135140;27;20859;-86
2022/11/25 05:21:42;;;;;;;6.22;5.00;;;;;;;;;;5134919;27;20418;-87
2022/11/25 05:24:08;;;;;;;5.30;4.80;;;;;;;;;;5134247;27;20386;-87
2022/11/25 05:26:34;;;;;;;5.45;4.60;;;;;;;;;;5134400;27;20383;-88
2022/11/25 05:29:00;;;;;;;5.30;4.80;;;;;;;;;;5133843;27;20386;-85
2022/11/25 05:31:26;;;;;;;5.70;4.68;;;;;;;;;;5114875;27;20786;-86
2022/11/25 05:33:52;;;;;;;5.15;4.70;;;;;;;;;;5115742;27;20461;-86
2022/11/25 05:36:18;;;;;;;5.15;4.65;;;;;;;;;;5132482;27;20389;-85
2022/11/25 05:38:44;;;;;;;6.40;5.70;;;;;;;;;;5113641;27;20732;-85
2022/11/25 05:41:10;;;;;;;5.70;5.15;;;;;;;;;;5125031;27;20375;-86
2022/11/25 05:43:36;;;;;;;5.95;5.35;;;;;;;;;;5114824;27;20375;-85
2022/11/25 05:46:09;;;;;;;6.30;5.70;;;;;;;;;;5095112;28;20400;-85
2022/11/25 05:48:35;;;;;;;6.33;5.73;;;;;;;;;;5112825;27;20984;-86
2022/11/25 05:51:03;;;;;;;6.78;5.70;;;;;;;;;;5117405;27;20374;-86
2022/11/25 05:53:29;;;;;;;6.50;6.00;;;;;;;;;;5114060;27;20384;-86
2022/11/25 05:55:59;;;;;;;7.15;5.68;;;;;;;;;;5111944;27;20400;-86
2022/11/25 05:58:25;;;;;;;6.00;5.50;;;;;;;;;;5097884;27;20371;-85
2022/11/25 06:00:51;;;;;;;6.55;5.82;;;;;;;;;;5114565;27;20369;-84
2022/11/25 06:03:17;;;;;;;6.55;5.88;;;;;;;;;;5096478;27;20423;-86
2022/11/25 06:05:43;;;;;;;6.45;5.85;;;;;;;;;;5123063;27;20771;-86
2022/11/25 06:08:10;;;;;;;6.40;5.78;;;;;;;;;;5121835;27;20378;-85
2022/11/25 06:10:39;;;;;;;6.35;5.75;;;;;;;;;;5127806;27;20398;-86
2022/11/25 06:13:05;;;;;;;6.47;5.88;;;;;;;;;;5115380;27;20410;-86
2022/11/25 06:15:31;;;;;;;6.63;6.03;;;;;;;;;;5114056;27;20404;-85
2022/11/25 06:17:57;;;;;;;7.00;6.13;;;;;;;;;;5117643;27;20396;-86
2022/11/25 06:20:23;;;;;;;14.77;8.00;;;;;;;;;;5129685;27;20855;-86
2022/11/25 06:22:49;;;;;;;13.00;8.25;;;;;;;;;;5135472;27;20374;-86
2022/11/25 06:25:15;;;;;;;14.55;8.85;;;;;;;;;;5122634;27;20432;-86
2022/11/25 06:27:41;;;;;;;11.98;8.40;;;;;;;;;;5132917;27;20371;-86
2022/11/25 06:30:08;;;;;;;13.80;8.38;;;;;;;;;;5133004;27;20725;-86
2022/11/25 06:32:34;;;;;;;12.77;8.80;;;;;;;;;;5135470;27;20381;-86
2022/11/25 06:35:00;;;;;;;14.93;9.30;;;;;;;;;;5131479;27;20409;-86
2022/11/25 06:37:26;;;;;;;14.10;9.27;;;;;;;;;;5132780;27;20386;-86
2022/11/25 06:39:52;;;;;;;13.02;9.30;;;;;;;;;;5114192;28;20878;-87
2022/11/25 06:42:18;;;;;;;17.17;10.85;;;;;;;;;;5135311;27;20435;-86
2022/11/25 06:44:44;;;;;;;14.30;10.07;;;;;;;;;;5133169;27;20374;-87
2022/11/25 06:47:10;;;;;;;15.30;11.25;;;;;;;;;;5118623;27;20390;-86
2022/11/25 06:49:36;;;;;;;11.48;10.18;;;;;;;;;;5136707;27;20485;-85
2022/11/25 06:52:02;;;;;;;12.18;10.43;;;;;;;;;;5136841;27;20374;-86
2022/11/25 06:54:28;;;;;;;12.85;10.18;;;;;;;;;;5135917;27;20406;-87
2022/11/25 06:56:54;;;;;;;12.37;10.33;;;;;;;;;;5134713;27;20378;-87
2022/11/25 06:59:20;;;;;;;13.77;10.75;;;;;;;;;;5117881;27;20936;-86
2022/11/25 07:01:46;;;;;;;16.42;11.43;;;;;;;;;;5136479;27;20386;-87
2022/11/25 07:04:12;;;;;;;23.37;15.77;;;;;;;;;;5136842;27;20867;-87
2022/11/25 07:06:38;;;;;;;20.42;14.93;;;;;;;;;;5136537;27;20379;-86
2022/11/25 07:09:05;;;;;;;20.98;14.98;;;;;;;;;;5127430;27;20385;-87
2022/11/25 07:11:32;;;;;;;16.33;13.32;;;;;;;;;;5136395;27;20374;-87
2022/11/25 07:14:00;;;;;;;15.55;12.82;;;;;;;;;;5136253;27;20938;-86
2022/11/25 07:16:26;;;;;;;14.98;12.60;;;;;;;;;;5136515;27;20400;-87
2022/11/25 07:18:53;;;;;;;14.35;12.13;;;;;;;;;;5131740;27;20387;-87
2022/11/25 07:21:23;;;;;;;13.73;11.40;;;;;;;;;;5133658;27;20390;-87
2022/11/25 07:23:49;;;;;;;12.97;11.23;;;;;;;;;;5136363;27;20437;-86
2022/11/25 07:26:20;;;;;;;12.48;11.27;;;;;;;;;;5136007;27;20385;-86
2022/11/25 07:28:47;;;;;;;12.82;11.43;;;;;;;;;;5135745;27;20932;-86
2022/11/25 07:31:17;;;;;;;56.07;31.20;;;;;;;;;;5135822;27;20370;-86
2022/11/25 07:33:44;;;;;;;21.40;14.80;;;;;;;;;;5135832;27;20378;-87
2022/11/25 07:36:11;;;;;;;15.57;12.10;;;;;;;;;;5135806;27;20410;-85
2022/11/25 07:38:38;;;;;;;15.60;12.80;;;;;;;;;;5135904;27;20406;-85
2022/11/25 07:41:08;;;;;;;14.73;12.32;;;;;;;;;;5117419;27;20401;-86
2022/11/25 07:43:35;;;;;;;13.70;12.30;;;;;;;;;;5135847;27;20411;-86
2022/11/25 07:46:11;;;;;;;21.60;15.65;;;;;;;;;;5135576;27;20405;-85
2022/11/25 07:48:37;;;;;;;16.80;13.73;;;;;;;;;;5132428;27;20430;-87
2022/11/25 07:51:03;;;;;;;13.82;12.02;;;;;;;;;;5133241;27;20403;-86
2022/11/25 07:53:29;;;;;;;12.52;11.23;;;;;;;;;;5134212;27;20418;-86
2022/11/25 07:55:56;;;;;;;14.00;12.48;;;;;;;;;;5135281;27;20892;-87
2022/11/25 07:58:21;;;;;;;13.48;11.95;;;;;;;;;;5117006;27;20381;-86
2022/11/25 08:00:47;;;;;;;12.80;11.57;;;;;;;;;;5116741;27;20736;-86
2022/11/25 08:03:13;;;;;;;13.50;12.10;;;;;;;;;;5132417;27;20444;-85
2022/11/25 08:05:39;;;;;;;18.80;15.40;;;;;;;;;;5135281;27;20383;-86
2022/11/25 08:08:05;;;;;;;16.88;14.20;;;;;;;;;;5127629;27;20379;-87
2022/11/25 08:10:32;;;;;;;17.55;14.38;;;;;;;;;;5112614;27;20399;-88
2022/11/25 08:12:58;;;;;;;18.50;14.55;;;;;;;;;;5133295;27;20387;-88
2022/11/25 08:15:24;;;;;;;14.90;13.38;;;;;;;;;;5132960;27;20402;-88
2022/11/25 08:17:51;;;;;;;16.45;14.40;;;;;;;;;;5133210;27;20916;-88
2022/11/25 08:20:17;;;;;;;21.47;17.67;;;;;;;;;;5133194;27;20371;-88
2022/11/25 08:22:43;;;;;;;19.13;16.80;;;;;;;;;;5114585;27;20724;-88
2022/11/25 08:25:09;;;;;;;17.48;15.57;;;;;;;;;;5133108;27;20427;-88
2022/11/25 08:27:35;;;;;;;17.42;13.98;;;;;;;;;;5131131;27;20375;-87
2022/11/25 08:30:01;;;;;;;16.55;13.90;;;;;;;;;;5134879;27;20739;-88
2022/11/25 08:32:27;;;;;;;17.55;15.10;;;;;;;;;;5137347;27;20367;-88
2022/11/25 08:34:53;;;;;;;21.13;17.05;;;;;;;;;;5137097;27;20399;-88
2022/11/25 08:37:19;;;;;;;25.30;19.08;;;;;;;;;;5140864;27;20382;-89
2022/11/25 08:39:46;;;;;;;22.23;17.38;;;;;;;;;;5141994;27;20367;-87
2022/11/25 08:42:12;;;;;;;18.10;15.07;;;;;;;;;;5145425;27;20461;-87
2022/11/25 08:44:38;;;;;;;18.75;15.05;;;;;;;;;;5138625;27;20418;-88
2022/11/25 08:47:04;;;;;;;19.25;15.57;;;;;;;;;;5137165;27;20481;-88
2022/11/25 08:49:30;;;;;;;18.10;15.03;;;;;;;;;;5124395;27;20464;-87
2022/11/25 08:51:56;;;;;;;19.15;14.73;;;;;;;;;;5135147;27;20375;-87
2022/11/25 08:54:22;;;;;;;26.23;17.77;;;;;;;;;;5134646;27;20398;-87
2022/11/25 08:56:48;;;;;;;39.83;22.73;;;;;;;;;;5116637;27;20385;-89
2022/11/25 08:59:14;;;;;;;49.03;25.75;;;;;;;;;;5135045;27;20371;-87
2022/11/25 09:01:41;;;;;;;38.67;21.90;;;;;;;;;;5134378;27;20889;-87
2022/11/25 09:04:07;;;;;;;40.15;22.08;;;;;;;;;;5134072;27;20377;-88
2022/11/25 09:06:32;;;;;;;28.20;19.02;;;;;;;;;;5134256;27;20371;-88
2022/11/25 09:09:00;;;;;;;33.78;20.48;;;;;;;;;;5125417;27;20851;-88
2022/11/25 09:11:26;;;;;;;28.67;18.87;;;;;;;;;;5133948;27;20453;-88
2022/11/25 09:13:52;;;;;;;27.92;18.55;;;;;;;;;;5134111;27;20382;-88
2022/11/25 09:16:19;;;;;;;30.85;20.95;;;;;;;;;;5134279;27;20879;-88
2022/11/25 09:18:45;;;;;;;25.15;18.90;;;;;;;;;;5134052;27;20773;-88
2022/11/25 09:21:12;;;;;;;28.45;20.27;;;;;;;;;;5115862;27;20469;-87
2022/11/25 09:23:38;;;;;;;36.00;22.50;;;;;;;;;;5133997;27;20379;-88
2022/11/25 09:26:06;;;;;;;36.07;23.10;;;;;;;;;;5133725;27;20500;-87
2022/11/25 09:28:32;;;;;;;40.38;25.30;;;;;;;;;;5134127;27;20492;-88
2022/11/25 09:30:58;;;;;;;36.83;23.25;;;;;;;;;;5115267;27;20378;-87
2022/11/25 09:33:24;;;;;;;36.88;21.88;;;;;;;;;;5129305;27;20394;-88
2022/11/25 09:35:50;;;;;;;29.05;19.40;;;;;;;;;;5126669;27;20444;-88
2022/11/25 09:38:16;;;;;;;26.55;18.00;;;;;;;;;;5133753;27;20366;-88
2022/11/25 09:40:54;;;;;;;30.63;17.92;;;;;;;;;;5133481;27;20409;-88
2022/11/25 09:49:05;;;;;;;25.73;17.13;;;;;;;;;;5133517;27;20429;-88
2022/11/25 09:51:42;;;;;;;22.35;16.25;;;;;;;;;;5133308;27;20422;-88
2022/11/25 09:54:17;;;;;;;21.90;16.13;;;;;;;;;;5130032;27;20449;-89
2022/11/25 09:56:49;;;;;;;21.10;14.80;;;;;;;;;;5133199;27;20367;-88
2022/11/25 09:59:20;;;;;;;16.98;13.85;;;;;;;;;;5133482;27;20382;-89
2022/11/25 10:01:49;;;;;;;19.08;14.27;;;;;;;;;;5115133;27;20863;-88
2022/11/25 10:04:25;;;;;;;19.52;14.55;;;;;;;;;;5133352;27;20461;-88
2022/11/25 10:06:55;;;;;;;18.38;14.02;;;;;;;;;;5132560;27;20429;-88
2022/11/25 10:09:25;;;;;;;18.83;14.85;;;;;;;;;;5124421;27;20367;-87
2022/11/25 10:11:59;;;;;;;19.17;14.32;;;;;;;;;;5133063;27;20374;-89
2022/11/25 10:14:34;;;;;;;15.40;12.25;;;;;;;;;;5133107;27;20399;-88
2022/11/25 10:17:03;;;;;;;14.45;11.02;;;;;;;;;;5135124;27;20370;-88
2022/11/25 10:19:32;;;;;;;10.80;9.70;;;;;;;;;;5135569;27;20436;-88
2022/11/25 10:21:59;;;;;;;11.20;8.57;;;;;;;;;;5137519;27;20370;-87
2022/11/25 10:24:25;;;;;;;9.02;7.55;;;;;;;;;;5138068;27;20385;-87
2022/11/25 10:26:59;;;;;;;14.57;7.77;;;;;;;;;;5135109;27;20375;-86
2022/11/25 10:29:29;;;;;;;10.63;7.75;;;;;;;;;;5133909;27;20429;-88
2022/11/25 10:32:10;;;;;;;9.70;8.30;;;;;;;;;;5137133;27;20428;-87
2022/11/25 10:34:40;;;;;;;8.60;7.45;;;;;;;;;;5133340;27;20405;-87
2022/11/25 10:37:11;;;;;;;9.57;7.47;;;;;;;;;;5127246;27;20384;-87
2022/11/25 10:39:37;;;;;;;8.20;7.38;;;;;;;;;;5102052;27;20900;-87
2022/11/25 10:42:07;;;;;;;8.37;6.87;;;;;;;;;;5106021;27;20375;-87
2022/11/25 10:44:40;;;;;;;9.38;7.28;;;;;;;;;;5133576;27;20378;-86
2022/11/25 10:47:15;;;;;;;8.43;6.78;;;;;;;;;;5110021;27;20424;-87
2022/11/25 10:50:00;;;;;;;8.93;7.13;;;;;;;;;;5134453;27;20384;-86
2022/11/25 10:52:27;;;;;;;8.73;7.00;;;;;;;;;;5102845;27;20466;-86
2022/11/25 10:54:58;;;;;;;7.53;6.75;;;;;;;;;;5135067;27;20405;-86
2022/11/25 10:57:27;;;;;;;9.40;7.22;;;;;;;;;;5126529;27;20404;-86
2022/11/25 10:59:58;;;;;;;10.40;7.00;;;;;;;;;;5117392;27;20749;-85
2022/11/25 11:02:27;;;;;;;7.68;6.88;;;;;;;;;;5117022;27;20873;-87
2022/11/25 11:05:01;;;;;;;8.95;6.75;;;;;;;;;;5117965;27;20394;-86
2022/11/25 11:07:29;;;;;;;7.47;6.70;;;;;;;;;;5134248;27;20371;-86
2022/11/25 11:10:12;;;;;;;10.32;7.32;;;;;;;;;;5130281;27;20731;-87
2022/11/25 11:12:49;;;;;;;7.75;6.25;;;;;;;;;;5125800;27;20415;-87
2022/11/25 11:15:20;;;;;;;9.27;6.30;;;;;;;;;;5136260;27;20403;-86
2022/11/25 11:17:47;;;;;;;8.00;6.30;;;;;;;;;;5136440;27;20447;-87
2022/11/25 11:20:21;;;;;;;6.70;6.00;;;;;;;;;;5135862;27;20382;-85
2022/11/25 11:22:57;;;;;;;6.60;5.20;;;;;;;;;;5136081;27;20382;-85
2022/11/25 11:25:28;;;;;;;8.27;5.28;;;;;;;;;;5131669;27;20395;-85
2022/11/25 11:27:54;;;;;;;7.20;5.18;;;;;;;;;;5133480;27;20375;-86
2022/11/25 11:30:22;;;;;;;5.80;4.57;;;;;;;;;;5130773;27;20380;-85
2022/11/25 11:33:06;;;;;;;7.47;5.10;;;;;;;;;;5132313;27;20375;-86
2022/11/25 11:35:35;;;;;;;5.35;4.43;;;;;;;;;;5130277;27;20763;-84
2022/11/25 11:38:04;;;;;;;8.82;4.53;;;;;;;;;;5127974;27;20378;-85
2022/11/25 11:40:30;;;;;;;5.75;4.43;;;;;;;;;;5135110;27;20848;-85
2022/11/25 11:43:14;;;;;;;5.85;4.47;;;;;;;;;;5135830;27;20378;-85
2022/11/25 11:45:51;;;;;;;5.50;4.43;;;;;;;;;;5135674;27;20390;-85
2022/11/25 11:48:17;;;;;;;9.20;4.90;;;;;;;;;;5117307;27;20803;-85
2022/11/25 11:50:46;;;;;;;5.38;4.68;;;;;;;;;;5117507;27;20472;-85
2022/11/25 11:53:18;;;;;;;5.13;4.50;;;;;;;;;;5137800;27;20390;-84
2022/11/25 11:55:51;;;;;;;5.15;4.68;;;;;;;;;;5140318;27;20404;-84
2022/11/25 11:58:20;;;;;;;5.20;4.70;;;;;;;;;;5133571;27;20378;-84
2022/11/25 12:01:09;;;;;;;8.35;5.07;;;;;;;;;;5128752;27;20398;-85
2022/11/25 12:03:39;;;;;;;6.78;5.57;;;;;;;;;;5127538;27;20389;-84
2022/11/25 12:06:06;;;;;;;7.20;5.70;;;;;;;;;;5140865;27;20377;-84
2022/11/25 12:08:38;;;;;;;6.22;5.13;;;;;;;;;;5134989;27;20408;-85
2022/11/25 12:11:12;;;;;;;6.47;5.25;;;;;;;;;;5147236;27;20370;-86
2022/11/25 12:13:47;;;;;;;6.22;5.13;;;;;;;;;;5141535;27;20382;-83
2022/11/25 12:16:13;;;;;;;5.93;4.90;;;;;;;;;;5137475;27;20398;-87
2022/11/25 12:18:56;;;;;;;5.50;4.93;;;;;;;;;;5136899;27;20423;-85
2022/11/25 12:21:22;;;;;;;5.93;5.03;;;;;;;;;;5135997;27;20374;-86
2022/11/25 12:24:26;;;;;;;8.02;5.22;;;;;;;;;;5135799;27;20374;-85
2022/11/25 12:26:58;;;;;;;7.05;5.13;;;;;;;;;;5033943;28;20387;-85
2022/11/25 12:29:36;;;;;;;8.25;5.70;;;;;;;;;;5031950;28;20387;-85
2022/11/25 12:32:09;;;;;;;8.93;5.80;;;;;;;;;;5034374;28;20394;-84
2022/11/25 12:34:39;;;;;;;7.03;5.90;;;;;;;;;;5031751;28;20449;-84
2022/11/25 12:37:11;;;;;;;7.68;5.82;;;;;;;;;;5030837;28;20421;-83
2022/11/25 12:39:52;;;;;;;8.02;6.07;;;;;;;;;;5029121;28;20470;-83
2022/11/25 12:42:22;;;;;;;8.77;6.10;;;;;;;;;;5031673;28;20471;-83
2022/11/25 12:44:53;;;;;;;8.98;6.80;;;;;;;;;;5031345;28;20448;-84
2022/11/25 12:47:20;;;;;;;10.13;7.38;;;;;;;;;;5031622;28;20403;-83
2022/11/25 12:49:50;;;;;;;12.30;8.02;;;;;;;;;;5029665;28;20379;-84
2022/11/25 12:52:28;;;;;;;9.07;7.53;;;;;;;;;;5014908;28;20756;-82
2022/11/25 12:54:54;;;;;;;11.13;7.88;;;;;;;;;;5031439;28;20488;-82
2022/11/25 12:57:28;;;;;;;10.88;7.30;;;;;;;;;;5052686;27;20881;-82
2022/11/25 13:00:02;;;;;;;8.45;6.53;;;;;;;;;;5118374;27;20364;-83
2022/11/25 13:02:28;;;;;;;11.13;6.70;;;;;;;;;;5133036;27;20386;-82
2022/11/25 13:05:03;;;;;;;9.48;7.05;;;;;;;;;;5133573;27;20883;-82
2022/11/25 13:07:32;;;;;;;8.82;6.93;;;;;;;;;;5131647;27;20371;-84
2022/11/25 13:10:01;;;;;;;9.40;6.63;;;;;;;;;;5127901;27;20435;-82
2022/11/25 13:12:50;;;;;;;9.25;6.75;;;;;;;;;;5134159;27;20385;-83
2022/11/25 13:15:20;;;;;;;12.83;9.00;;;;;;;;;;5120584;27;20946;-82
2022/11/25 13:17:47;;;;;;;8.55;7.70;;;;;;;;;;5134010;27;20399;-82
2022/11/25 13:20:28;;;;;;;9.15;6.75;;;;;;;;;;5133894;27;20413;-82
2022/11/25 13:23:07;;;;;;;8.13;6.07;;;;;;;;;;5133879;27;20371;-82
2022/11/25 13:25:33;;;;;;;8.52;7.15;;;;;;;;;;5133750;27;20856;-82
2022/11/25 13:28:01;;;;;;;8.68;6.72;;;;;;;;;;5133701;27;20409;-82
2022/11/25 13:30:33;;;;;;;8.15;6.25;;;;;;;;;;5133913;27;20414;-82
2022/11/25 13:33:11;;;;;;;9.40;6.47;;;;;;;;;;5115247;27;20788;-82
2022/11/25 13:35:46;;;;;;;9.18;5.75;;;;;;;;;;5133718;27;20497;-82
2022/11/25 13:38:30;;;;;;;7.68;5.93;;;;;;;;;;5133729;27;20379;-82
2022/11/25 13:41:00;;;;;;;7.47;6.70;;;;;;;;;;5133537;27;20402;-82
2022/11/25 13:43:26;;;;;;;7.38;5.93;;;;;;;;;;5133554;27;20407;-82
2022/11/25 13:45:53;;;;;;;9.27;6.47;;;;;;;;;;5133382;27;20402;-82
2022/11/25 13:48:27;;;;;;;8.52;6.60;;;;;;;;;;5133339;27;20385;-82
2022/11/25 13:51:13;;;;;;;8.77;6.23;;;;;;;;;;5133487;27;20458;-82
2022/11/25 13:53:40;;;;;;;9.90;6.40;;;;;;;;;;5133149;27;20458;-82
2022/11/25 13:56:24;;;;;;;8.85;6.00;;;;;;;;;;5129999;27;20419;-82
2022/11/25 13:59:08;;;;;;;7.32;6.05;;;;;;;;;;5133763;27;20380;-82
2022/11/25 14:01:34;;;;;;;11.10;7.40;;;;;;;;;;5133167;27;20839;-82
2022/11/25 14:04:03;;;;;;;9.80;6.68;;;;;;;;;;5133308;27;20375;-82
2022/11/25 14:06:38;;;;;;;8.88;6.63;;;;;;;;;;5133382;27;20387;-82
2022/11/25 14:09:10;;;;;;;9.95;7.00;;;;;;;;;;5124383;27;20458;-82
2022/11/25 14:11:48;;;;;;;10.25;7.03;;;;;;;;;;5133129;27;20378;-82
2022/11/25 14:14:17;;;;;;;10.50;6.57;;;;;;;;;;5133520;27;20466;-82
2022/11/25 14:16:54;;;;;;;10.05;6.88;;;;;;;;;;5133117;27;20378;-82
2022/11/25 14:19:20;;;;;;;9.25;6.95;;;;;;;;;;5133096;27;20363;-82
2022/11/25 14:21:52;;;;;;;7.47;6.75;;;;;;;;;;5132941;27;20499;-82
2022/11/25 14:24:29;;;;;;;8.65;7.22;;;;;;;;;;5133021;27;20459;-82
2022/11/25 14:26:56;;;;;;;10.38;7.05;;;;;;;;;;5133548;27;20475;-82
2022/11/25 14:29:25;;;;;;;9.73;6.55;;;;;;;;;;5132974;27;20727;-82
2022/11/25 14:31:52;;;;;;;8.77;7.18;;;;;;;;;;5135110;27;20488;-82
2022/11/25 14:34:37;;;;;;;9.07;7.57;;;;;;;;;;5135464;27;20421;-82
2022/11/25 14:37:09;;;;;;;8.20;7.40;;;;;;;;;;5132880;27;20362;-82
2022/11/25 14:39:46;;;;;;;10.13;7.22;;;;;;;;;;5132932;27;20371;-82
2022/11/25 14:42:16;;;;;;;8.15;7.13;;;;;;;;;;5132824;27;20378;-82
2022/11/25 14:44:45;;;;;;;10.13;7.13;;;;;;;;;;5132809;27;20435;-82
2022/11/25 14:47:11;;;;;;;9.50;7.10;;;;;;;;;;5129398;27;20450;-82
2022/11/25 14:49:56;;;;;;;9.25;7.18;;;;;;;;;;5132784;27;20386;-82
2022/11/25 14:52:30;;;;;;;9.27;7.18;;;;;;;;;;5114363;28;20375;-83
2022/11/25 14:54:57;;;;;;;10.98;9.02;;;;;;;;;;5114194;27;20479;-82
2022/11/25 14:57:29;;;;;;;10.43;9.35;;;;;;;;;;5131363;27;20371;-82
2022/11/25 15:00:02;;;;;;;12.38;9.45;;;;;;;;;;5131826;27;20911;-82